Time;durP1;ratioP1;P1;durP2;ratioP2;P2;SDS_P1;SDS_P2;PMS_P1;PMS_P2;Temp;Humidity;BMP_temperature;BMP_pressure;BME280_temperature;BME280_humidity;BME280_pressure;Samples;Min_cycle;Max_cycle;Signal;HPM_P1;HPM_P2
2021/03/02 00:01:05;;;;;;;;;;;;;;;9.89;40.22;102332.75;5033437;28;19917;-82
2021/03/02 00:03:49;;;;;;;;;;;;;;;9.78;39.89;102334.63;5032558;28;19912;-82
2021/03/02 00:06:34;;;;;;;;;;;;;;;10.02;39.87;102334.91;5041966;28;19913;-82
2021/03/02 00:09:19;;;;;;;;;;;;;;;9.86;40.38;102333.25;5042277;28;20298;-83
2021/03/02 00:12:04;;;;;;;;;;;;;;;9.67;40.91;102337.59;5041261;28;19913;-82
2021/03/02 00:14:50;;;;;;;;;;;;;;;9.81;40.73;102335.97;5057078;28;19920;-81
2021/03/02 00:17:48;;;;;;;;;;;;;;;9.82;40.57;102337.63;5029030;28;19913;-82
2021/03/02 00:20:36;;;;;;;;;;;;;;;9.34;42.33;102336.19;5033605;28;20383;-83
2021/03/02 00:23:22;;;;;;;;;;;;;;;9.08;42.97;102337.97;5027730;28;19912;-82
2021/03/02 00:26:07;;;;;;;;;;;;;;;9.22;43.07;102333.69;5024921;28;19912;-82
2021/03/02 00:28:55;;;;;;;;;;;;;;;9.59;42.15;102340.84;5040144;28;19912;-82
2021/03/02 00:31:40;;;;;;;;;;;;;;;9.28;42.70;102346.19;5061514;28;19897;-83
2021/03/02 00:34:25;;;;;;;;;;;;;;;9.40;42.64;102351.38;5049422;28;19921;-82
2021/03/02 00:37:11;;;;;;;;;;;;;;;9.08;43.61;102348.84;5040189;28;20291;-82
2021/03/02 00:39:56;;;;;;;;;;;;;;;9.24;43.90;102341.56;5033667;28;19913;-82
2021/03/02 00:42:42;;;;;;;;;;;;;;;9.31;43.95;102348.38;5026163;28;19912;-81
2021/03/02 00:45:27;;;;;;;;;;;;;;;9.18;44.38;102348.88;5040697;28;19912;-82
2021/03/02 00:48:12;;;;;;;;;;;;;;;9.20;43.89;102346.69;5056373;28;19912;-83
2021/03/02 00:50:57;;;;;;;;;;;;;;;9.33;42.71;102348.94;5028181;28;19921;-82
2021/03/02 00:53:42;;;;;;;;;;;;;;;9.40;42.58;102349.47;5039748;28;19912;-82
2021/03/02 00:56:27;;;;;;;;;;;;;;;9.26;42.53;102344.81;5044588;28;19917;-82
2021/03/02 00:59:12;;;;;;;;;;;;;;;9.44;42.12;102338.91;5031059;28;19912;-80
2021/03/02 01:01:57;;;;;;;;;;;;;;;9.35;42.11;102333.16;5026614;28;20330;-82
2021/03/02 01:04:44;;;;;;;;;;;;;;;9.36;41.89;102340.25;5032006;28;19916;-82
2021/03/02 01:07:28;;;;;;;;;;;;;;;9.05;42.86;102338.50;5026790;28;19912;-81
2021/03/02 01:10:14;;;;;;;;;;;;;;;9.10;42.40;102346.66;5032222;28;19912;-83
2021/03/02 01:13:05;;;;;;;;;;;;;;;9.11;42.25;102337.44;5058846;28;20383;-82
2021/03/02 01:15:50;;;;;;;;;;;;;;;9.20;41.77;102340.44;5053443;28;19920;-82
2021/03/02 01:18:35;;;;;;;;;;;;;;;9.08;42.05;102351.56;5035173;28;19912;-82
2021/03/02 01:21:19;;;;;;;;;;;;;;;9.09;42.09;102346.94;5045456;28;19912;-82
2021/03/02 01:24:04;;;;;;;;;;;;;;;9.07;42.23;102355.34;5027948;28;19912;-82
2021/03/02 01:26:49;;;;;;;;;;;;;;;9.01;41.71;102354.50;5062450;28;19896;-82
2021/03/02 01:29:33;;;;;;;;;;;;;;;8.90;42.72;102357.41;5035596;28;19913;-82
2021/03/02 01:32:18;;;;;;;;;;;;;;;8.90;41.87;102355.53;5028954;28;19912;-82
2021/03/02 01:35:05;;;;;;;;;;;;;;;9.11;41.66;102374.59;5047883;28;19916;-82
2021/03/02 01:37:51;;;;;;;;;;;;;;;8.84;42.22;102374.72;5046898;23;19925;-81
2021/03/02 01:40:35;;;;;;;;;;;;;;;9.29;40.72;102383.13;5042432;28;19920;-81
2021/03/02 01:43:20;;;;;;;;;;;;;;;8.85;42.42;102381.78;5058236;28;19913;-80
2021/03/02 01:46:05;;;;;;;;;;;;;;;9.27;40.67;102379.03;5071116;28;20286;-82
2021/03/02 01:48:50;;;;;;;;;;;;;;;9.20;40.65;102379.25;5051052;28;19912;-82
2021/03/02 01:51:35;;;;;;;;;;;;;;;8.72;41.59;102385.00;5047541;28;19917;-83
2021/03/02 01:54:19;;;;;;;;;;;;;;;8.30;43.58;102379.53;5034498;28;19916;-83
2021/03/02 01:57:04;;;;;;;;;;;;;;;8.76;42.21;102373.34;5046628;28;19912;-80
2021/03/02 01:59:49;;;;;;;;;;;;;;;9.03;41.96;102381.38;5025476;28;19916;-81
2021/03/02 02:02:48;;;;;;;;;;;;;;;9.04;42.03;102382.97;5047316;28;19913;-82
2021/03/02 02:05:36;;;;;;;;;;;;;;;9.02;42.21;102379.72;5037470;28;20379;-82
2021/03/02 02:08:23;;;;;;;;;;;;;;;9.13;41.63;102378.72;5050389;28;19913;-81
2021/03/02 02:11:12;;;;;;;;;;;;;;;8.94;42.23;102369.38;5067473;28;19916;-80
2021/03/02 02:14:16;;;;;;;;;;;;;;;8.87;41.72;102374.22;5058388;28;19912;-81
2021/03/02 02:17:03;;;;;;;;;;;;;;;8.38;42.38;102385.28;5081808;28;19912;-82
2021/03/02 02:19:51;;;;;;;;;;;;;;;8.19;43.13;102389.44;5054421;28;19932;-82
2021/03/02 02:22:39;;;;;;;;;;;;;;;7.80;44.19;102387.97;5057388;28;19912;-82
2021/03/02 02:25:42;;;;;;;;;;;;;;;8.19;43.66;102392.13;5076863;28;19912;-83
2021/03/02 02:28:29;;;;;;;;;;;;;;;8.44;43.23;102378.81;5057504;28;19912;-82
2021/03/02 02:31:15;;;;;;;;;;;;;;;8.55;42.76;102377.81;5063273;28;19913;-83
2021/03/02 02:34:00;;;;;;;;;;;;;;;8.65;42.34;102387.91;5034850;28;19912;-82
2021/03/02 02:36:48;;;;;;;;;;;;;;;8.72;42.53;102380.38;5042237;28;19916;-82
2021/03/02 02:39:34;;;;;;;;;;;;;;;7.97;44.10;102388.69;5045160;28;19913;-82
2021/03/02 02:42:19;;;;;;;;;;;;;;;7.97;43.71;102386.00;5039971;28;20294;-82
2021/03/02 02:45:04;;;;;;;;;;;;;;;8.34;43.27;102388.75;5048819;28;19916;-82
2021/03/02 02:47:51;;;;;;;;;;;;;;;7.33;46.15;102385.84;5043525;28;19916;-82
2021/03/02 02:50:36;;;;;;;;;;;;;;;7.89;44.97;102394.56;5043662;28;19916;-82
2021/03/02 02:53:20;;;;;;;;;;;;;;;7.25;45.67;102389.81;5038241;28;19920;-82
2021/03/02 02:56:06;;;;;;;;;;;;;;;7.02;46.82;102394.63;5041203;28;19916;-81
2021/03/02 02:59:01;;;;;;;;;;;;;;;7.54;45.50;102393.13;5067110;28;19921;-80
2021/03/02 03:01:48;;;;;;;;;;;;;;;6.92;46.99;102389.06;5055080;28;19916;-82
2021/03/02 03:04:36;;;;;;;;;;;;;;;6.74;47.75;102392.91;5046209;28;19924;-81
2021/03/02 03:07:30;;;;;;;;;;;;;;;6.74;48.00;102385.59;5067141;28;19912;-80
2021/03/02 03:10:15;;;;;;;;;;;;;;;6.64;48.05;102387.34;5042944;28;19916;-81
2021/03/02 03:13:02;;;;;;;;;;;;;;;6.98;47.38;102390.78;5041317;28;19912;-81
2021/03/02 03:15:49;;;;;;;;;;;;;;;7.57;45.77;102398.03;5055129;28;19916;-80
2021/03/02 03:18:43;;;;;;;;;;;;;;;7.81;45.18;102403.16;5040896;28;19913;-80
2021/03/02 03:21:29;;;;;;;;;;;;;;;8.05;44.38;102394.47;5038547;28;19913;-83
2021/03/02 03:24:15;;;;;;;;;;;;;;;8.08;44.35;102401.25;5041903;28;20096;-81
2021/03/02 03:27:00;;;;;;;;;;;;;;;8.18;44.08;102406.75;5051506;28;19912;-80
2021/03/02 03:29:46;;;;;;;;;;;;;;;8.15;44.24;102393.72;5054525;28;20294;-82
2021/03/02 03:32:32;;;;;;;;;;;;;;;8.20;43.78;102399.19;5053646;28;19912;-81
2021/03/02 03:35:18;;;;;;;;;;;;;;;8.29;43.69;102402.25;5042993;28;19916;-82
2021/03/02 03:38:02;;;;;;;;;;;;;;;7.64;44.76;102395.94;5054380;28;19912;-82
2021/03/02 03:40:47;;;;;;;;;;;;;;;7.68;45.33;102401.66;5041651;28;20302;-82
2021/03/02 03:43:32;;;;;;;;;;;;;;;6.64;47.69;102403.56;5055944;28;19913;-81
2021/03/02 03:46:17;;;;;;;;;;;;;;;5.70;50.46;102397.88;5063814;28;19917;-80
2021/03/02 03:49:02;;;;;;;;;;;;;;;5.85;50.13;102394.63;5045451;28;19912;-80
2021/03/02 03:51:46;;;;;;;;;;;;;;;6.39;48.35;102398.59;5053792;28;19912;-81
2021/03/02 03:54:33;;;;;;;;;;;;;;;6.78;46.93;102396.72;5055472;28;19912;-82
2021/03/02 03:57:18;;;;;;;;;;;;;;;6.44;47.93;102404.06;5049457;28;20298;-82
2021/03/02 04:00:04;;;;;;;;;;;;;;;6.40;48.29;102405.59;5060840;28;19913;-81
2021/03/02 04:02:50;;;;;;;;;;;;;;;6.43;48.02;102407.81;5048481;28;19916;-81
2021/03/02 04:05:35;;;;;;;;;;;;;;;6.56;47.53;102415.59;5036926;28;20290;-82
2021/03/02 04:08:20;;;;;;;;;;;;;;;6.66;47.34;102409.53;5046080;28;19912;-80
2021/03/02 04:11:05;;;;;;;;;;;;;;;6.94;46.46;102414.00;5079298;28;19916;-81
2021/03/02 04:13:50;;;;;;;;;;;;;;;6.99;46.27;102414.06;5034979;28;19921;-80
2021/03/02 04:16:35;;;;;;;;;;;;;;;7.11;45.75;102417.50;5044236;28;19916;-81
2021/03/02 04:19:20;;;;;;;;;;;;;;;6.80;46.30;102417.06;5055159;28;19912;-83
2021/03/02 04:22:04;;;;;;;;;;;;;;;6.96;46.18;102420.00;5059204;28;19913;-81
2021/03/02 04:24:49;;;;;;;;;;;;;;;7.10;45.62;102421.25;5040999;28;19913;-81
2021/03/02 04:27:34;;;;;;;;;;;;;;;7.29;45.36;102425.28;5053558;28;19912;-81
2021/03/02 04:30:19;;;;;;;;;;;;;;;7.32;45.02;102422.91;5047144;28;19912;-83
2021/03/02 04:33:05;;;;;;;;;;;;;;;7.16;45.18;102425.69;5056280;28;19920;-80
2021/03/02 04:35:50;;;;;;;;;;;;;;;7.28;45.12;102427.19;5037306;28;19916;-80
2021/03/02 04:38:34;;;;;;;;;;;;;;;7.07;45.87;102429.84;5054194;28;19913;-81
2021/03/02 04:41:19;;;;;;;;;;;;;;;7.03;45.79;102426.84;5056120;28;19912;-82
2021/03/02 04:44:03;;;;;;;;;;;;;;;7.16;45.30;102420.25;5053116;28;19913;-80
2021/03/02 04:46:48;;;;;;;;;;;;;;;7.20;45.43;102424.91;5063425;28;19912;-82
2021/03/02 04:49:32;;;;;;;;;;;;;;;7.07;45.65;102424.44;5068908;28;20336;-80
2021/03/02 04:52:17;;;;;;;;;;;;;;;6.87;46.28;102427.69;5042237;28;19912;-81
2021/03/02 04:55:03;;;;;;;;;;;;;;;7.09;45.65;102430.44;5044337;28;19916;-83
2021/03/02 04:57:48;;;;;;;;;;;;;;;7.09;45.56;102427.72;5046989;28;19917;-83
2021/03/02 05:00:33;;;;;;;;;;;;;;;6.85;46.07;102427.94;5034015;28;20382;-82
2021/03/02 05:03:18;;;;;;;;;;;;;;;7.01;45.63;102425.47;5054500;28;19912;-82
2021/03/02 05:06:03;;;;;;;;;;;;;;;7.08;45.34;102426.09;5040706;28;19913;-82
2021/03/02 05:08:48;;;;;;;;;;;;;;;6.89;45.54;102439.09;5057070;28;19913;-82
2021/03/02 05:11:33;;;;;;;;;;;;;;;6.99;45.80;102443.81;5048741;28;19916;-82
2021/03/02 05:14:17;;;;;;;;;;;;;;;6.89;45.55;102428.25;5052420;28;19913;-81
2021/03/02 05:17:01;;;;;;;;;;;;;;;6.94;45.41;102431.03;5046496;28;19924;-81
2021/03/02 05:19:47;;;;;;;;;;;;;;;7.01;45.35;102439.00;5042390;28;19921;-82
2021/03/02 05:22:31;;;;;;;;;;;;;;;7.10;45.22;102432.06;5047042;28;19913;-82
2021/03/02 05:25:16;;;;;;;;;;;;;;;7.14;45.65;102433.22;5053637;28;19912;-82
2021/03/02 05:28:00;;;;;;;;;;;;;;;7.00;45.54;102434.66;5040303;28;19920;-82
2021/03/02 05:30:45;;;;;;;;;;;;;;;7.14;44.90;102439.44;5070729;28;19912;-80
2021/03/02 05:33:29;;;;;;;;;;;;;;;7.00;46.26;102435.47;5071008;28;20095;-82
2021/03/02 05:36:16;;;;;;;;;;;;;;;7.31;45.72;102434.00;5041336;28;19916;-81
2021/03/02 05:39:02;;;;;;;;;;;;;;;7.17;44.33;102435.41;5049217;28;19913;-81
2021/03/02 05:41:49;;;;;;;;;;;;;;;7.23;44.77;102437.13;5051891;28;20341;-81
2021/03/02 05:44:34;;;;;;;;;;;;;;;7.24;44.31;102436.06;5047534;28;19912;-82
2021/03/02 05:47:19;;;;;;;;;;;;;;;7.32;44.45;102441.00;5033868;28;19912;-82
2021/03/02 05:50:04;;;;;;;;;;;;;;;7.22;44.67;102443.59;5050230;28;19912;-82
2021/03/02 05:52:48;;;;;;;;;;;;;;;6.97;44.63;102435.94;5032896;28;19920;-80
2021/03/02 05:55:35;;;;;;;;;;;;;;;7.01;45.39;102444.41;5078157;28;19928;-81
2021/03/02 05:58:21;;;;;;;;;;;;;;;7.12;44.24;102449.69;5049553;28;19920;-81
2021/03/02 06:01:06;;;;;;;;;;;;;;;7.15;44.81;102448.38;5038275;28;19926;-80
2021/03/02 06:03:51;;;;;;;;;;;;;;;7.05;45.78;102450.94;5037366;28;19913;-82
2021/03/02 06:06:35;;;;;;;;;;;;;;;7.08;45.88;102448.53;5036998;28;19912;-81
2021/03/02 06:09:20;;;;;;;;;;;;;;;7.24;46.02;102452.28;5045145;28;19912;-81
2021/03/02 06:12:06;;;;;;;;;;;;;;;7.39;45.01;102463.31;5034191;28;19912;-82
2021/03/02 06:15:03;;;;;;;;;;;;;;;7.37;44.40;102460.03;5045201;28;19912;-83
2021/03/02 06:18:07;;;;;;;;;;;;;;;7.44;45.24;102467.97;5053084;28;19912;-83
2021/03/02 06:20:52;;;;;;;;;;;;;;;7.50;45.13;102467.78;5046591;28;20298;-81
2021/03/02 06:23:44;;;;;;;;;;;;;;;7.50;44.69;102473.19;5071371;28;19912;-82
2021/03/02 06:26:28;;;;;;;;;;;;;;;7.83;44.37;102474.94;5041248;28;19916;-78
2021/03/02 06:29:14;;;;;;;;;;;;;;;7.95;43.53;102485.66;5041991;28;20286;-80
2021/03/02 06:31:58;;;;;;;;;;;;;;;7.79;44.54;102475.69;5057509;28;19920;-78
2021/03/02 06:34:49;;;;;;;;;;;;;;;7.96;44.48;102488.09;5066667;28;19912;-79
2021/03/02 06:37:41;;;;;;;;;;;;;;;8.15;42.82;102491.28;5034036;28;19917;-80
2021/03/02 06:40:37;;;;;;;;;;;;;;;8.25;42.96;102488.66;5044258;28;19912;-80
2021/03/02 06:43:40;;;;;;;;;;;;;;;8.13;43.63;102485.28;5048327;28;19912;-78
2021/03/02 06:46:37;;;;;;;;;;;;;;;8.18;43.32;102494.28;5045442;28;19912;-79
2021/03/02 06:49:34;;;;;;;;;;;;;;;8.35;42.82;102493.41;5070992;28;19912;-79
2021/03/02 06:52:19;;;;;;;;;;;;;;;8.31;42.72;102492.28;5059737;28;19912;-81
2021/03/02 06:55:19;;;;;;;;;;;;;;;8.29;43.26;102503.34;5055265;28;19912;-79
2021/03/02 06:58:15;;;;;;;;;;;;;;;8.36;43.93;102504.00;5058380;28;19912;-79
2021/03/02 07:01:00;;;;;;;;;;;;;;;8.27;44.60;102501.97;5069551;28;20306;-79
2021/03/02 07:03:44;;;;;;;;;;;;;;;8.42;43.48;102502.97;5055624;28;19912;-77
2021/03/02 07:06:36;;;;;;;;;;;;;;;8.44;43.21;102516.25;5051564;28;19912;-81
2021/03/02 07:09:21;;;;;;;;;;;;;;;8.51;44.11;102512.28;5041422;28;19912;-76
2021/03/02 07:12:06;;;;;;;;;;;;;;;8.58;43.57;102518.28;5044031;28;19916;-79
2021/03/02 07:14:51;;;;;;;;;;;;;;;8.75;43.96;102512.75;5046242;28;20382;-80
2021/03/02 07:17:37;;;;;;;;;;;;;;;8.77;43.86;102515.22;5043322;28;20298;-78
2021/03/02 07:20:23;;;;;;;;;;;;;;;8.69;43.36;102521.91;5058948;28;19920;-80
2021/03/02 07:23:08;;;;;;;;;;;;;;;8.77;43.91;102516.03;5050743;28;20308;-79
2021/03/02 07:25:55;;;;;;;;;;;;;;;8.95;43.81;102522.94;5049705;28;19912;-78
2021/03/02 07:28:40;;;;;;;;;;;;;;;9.06;44.34;102521.94;5051948;28;19913;-78
2021/03/02 07:31:25;;;;;;;;;;;;;;;9.02;44.88;102534.41;5063763;28;20382;-79
2021/03/02 07:34:11;;;;;;;;;;;;;;;9.06;44.65;102531.97;5062887;28;19913;-80
2021/03/02 07:36:56;;;;;;;;;;;;;;;9.11;44.26;102540.16;5055808;28;19925;-79
2021/03/02 07:39:57;;;;;;;;;;;;;;;9.19;44.46;102539.69;5074432;23;19920;-85
2021/03/02 07:42:43;;;;;;;;;;;;;;;9.24;45.08;102542.44;5065406;28;19917;-87
2021/03/02 07:45:29;;;;;;;;;;;;;;;9.27;44.98;102544.63;5066658;28;19939;-87
2021/03/02 07:48:23;;;;;;;;;;;;;;;9.36;44.36;102545.75;5064533;28;19916;-86
2021/03/02 07:51:16;;;;;;;;;;;;;;;9.42;43.68;102550.13;5066597;28;19920;-85
2021/03/02 07:54:14;;;;;;;;;;;;;;;9.50;44.17;102546.13;5052331;28;19912;-86
2021/03/02 07:57:14;;;;;;;;;;;;;;;9.52;44.29;102543.94;5054613;28;19916;-87
2021/03/02 08:00:25;;;;;;;;;;;;;;;9.59;44.77;102539.94;5050114;28;19913;-87
2021/03/02 08:03:18;;;;;;;;;;;;;;;9.67;44.74;102557.59;5073893;28;20370;-86
2021/03/02 08:06:23;;;;;;;;;;;;;;;9.77;44.31;102552.22;5067025;28;20379;-86
2021/03/02 08:09:27;;;;;;;;;;;;;;;9.88;44.43;102556.63;5049600;28;20310;-85
2021/03/02 08:12:29;;;;;;;;;;;;;;;9.96;44.44;102544.41;5069647;28;20386;-86
2021/03/02 08:15:14;;;;;;;;;;;;;;;10.06;43.92;102547.16;5052534;28;19916;-86
2021/03/02 08:18:18;;;;;;;;;;;;;;;10.14;43.39;102549.38;5067333;28;19917;-86
2021/03/02 08:21:23;;;;;;;;;;;;;;;10.31;43.27;102551.94;5063748;28;20295;-86
2021/03/02 08:24:08;;;;;;;;;;;;;;;10.43;43.30;102552.47;5070739;28;19912;-88
2021/03/02 08:26:53;;;;;;;;;;;;;;;10.49;42.80;102548.69;5081865;28;20415;-88
2021/03/02 08:29:46;;;;;;;;;;;;;;;10.56;41.96;102549.25;5067417;28;19912;-84
2021/03/02 08:32:31;;;;;;;;;;;;;;;10.60;40.38;102551.16;5070397;28;20286;-86
2021/03/02 08:35:16;;;;;;;;;;;;;;;10.69;41.02;102551.44;5054243;28;19912;-87
2021/03/02 08:38:03;;;;;;;;;;;;;;;10.72;40.45;102554.41;5050930;28;19913;-87
2021/03/02 08:40:48;;;;;;;;;;;;;;;10.73;39.97;102560.69;5069361;28;19912;-87
2021/03/02 08:43:35;;;;;;;;;;;;;;;10.82;39.81;102564.50;5051896;28;19912;-85
2021/03/02 08:46:24;;;;;;;;;;;;;;;10.91;39.62;102562.88;5077842;28;19912;-84
2021/03/02 08:49:12;;;;;;;;;;;;;;;10.94;39.64;102556.88;5052722;28;19913;-85
2021/03/02 08:51:57;;;;;;;;;;;;;;;11.00;39.52;102561.25;5068955;28;19912;-85
2021/03/02 08:54:49;;;;;;;;;;;;;;;11.15;38.99;102560.41;5050177;28;19913;-85
2021/03/02 08:57:44;;;;;;;;;;;;;;;11.25;38.60;102568.56;5055304;28;20314;-83
2021/03/02 09:00:28;;;;;;;;;;;;;;;11.31;38.54;102567.50;5066720;28;20378;-84
2021/03/02 09:03:14;;;;;;;;;;;;;;;11.34;38.64;102571.56;5045485;28;19916;-86
2021/03/02 09:06:05;;;;;;;;;;;;;;;11.36;38.71;102572.09;5055289;28;19912;-86
2021/03/02 09:08:51;;;;;;;;;;;;;;;11.46;39.05;102563.91;5065372;28;19912;-84
2021/03/02 09:11:38;;;;;;;;;;;;;;;11.55;39.24;102573.16;5063771;28;20302;-86
2021/03/02 09:14:27;;;;;;;;;;;;;;;11.56;40.01;102569.34;5052057;28;19913;-86
2021/03/02 09:17:12;;;;;;;;;;;;;;;11.58;38.70;102575.31;5048980;28;19916;-87
2021/03/02 09:20:03;;;;;;;;;;;;;;;11.66;39.19;102573.94;5066062;28;19913;-87
2021/03/02 09:22:48;;;;;;;;;;;;;;;11.79;38.68;102578.84;5066136;28;19912;-86
2021/03/02 09:25:34;;;;;;;;;;;;;;;11.76;38.47;102587.56;5065658;28;19912;-84
2021/03/02 09:28:19;;;;;;;;;;;;;;;11.96;37.65;102585.59;5054920;28;20216;-85
2021/03/02 09:31:04;;;;;;;;;;;;;;;12.00;38.56;102580.41;5054961;28;19917;-86
2021/03/02 09:33:49;;;;;;;;;;;;;;;12.13;38.91;102584.44;5083885;28;20282;-88
2021/03/02 09:36:35;;;;;;;;;;;;;;;12.24;38.75;102586.03;5053465;28;19916;-87
2021/03/02 09:39:23;;;;;;;;;;;;;;;12.27;38.61;102580.81;5054436;28;19912;-87
2021/03/02 09:42:19;;;;;;;;;;;;;;;12.32;38.12;102579.97;5065432;28;19913;-88
2021/03/02 09:45:04;;;;;;;;;;;;;;;12.44;37.72;102580.47;5067760;28;19912;-87
2021/03/02 09:47:57;;;;;;;;;;;;;;;12.39;38.20;102577.78;5052595;28;19912;-87
2021/03/02 09:50:42;;;;;;;;;;;;;;;12.35;38.22;102587.59;5089206;28;19912;-86
2021/03/02 09:53:35;;;;;;;;;;;;;;;12.44;38.67;102588.66;5057614;28;20298;-85
2021/03/02 09:56:20;;;;;;;;;;;;;;;12.47;38.20;102587.25;5072124;28;19916;-86
2021/03/02 09:59:06;;;;;;;;;;;;;;;12.46;38.19;102591.91;5053842;28;20353;-85
2021/03/02 10:01:51;;;;;;;;;;;;;;;12.49;37.53;102590.53;5058278;28;19912;-85
2021/03/02 10:04:35;;;;;;;;;;;;;;;12.53;36.82;102586.97;5054853;28;19912;-86
2021/03/02 10:07:21;;;;;;;;;;;;;;;12.50;37.02;102594.88;5054226;28;19913;-86
2021/03/02 10:10:06;;;;;;;;;;;;;;;12.48;37.57;102595.16;5060060;28;19916;-86
2021/03/02 10:13:00;;;;;;;;;;;;;;;12.62;38.81;102603.53;5053764;28;19912;-87
2021/03/02 10:15:44;;;;;;;;;;;;;;;12.70;37.99;102605.66;5070870;28;19920;-87
2021/03/02 10:18:29;;;;;;;;;;;;;;;12.66;37.94;102597.22;5078212;28;19911;-84
2021/03/02 10:21:14;;;;;;;;;;;;;;;12.84;37.94;102596.56;5051055;28;19912;-85
2021/03/02 10:23:59;;;;;;;;;;;;;;;12.82;37.49;102604.22;5063024;28;19912;-87
2021/03/02 10:26:44;;;;;;;;;;;;;;;12.86;38.17;102602.56;5050551;28;19913;-86
2021/03/02 10:29:30;;;;;;;;;;;;;;;13.01;38.02;102598.88;5049823;28;19913;-86
2021/03/02 10:32:18;;;;;;;;;;;;;;;13.05;38.06;102597.25;5060869;28;19917;-84
2021/03/02 10:35:02;;;;;;;;;;;;;;;13.17;37.69;102605.88;5050040;28;19912;-85
2021/03/02 10:37:47;;;;;;;;;;;;;;;13.20;37.41;102604.50;5054745;28;19916;-83
2021/03/02 10:40:33;;;;;;;;;;;;;;;13.24;37.92;102603.66;5062840;28;19913;-84
2021/03/02 10:43:17;;;;;;;;;;;;;;;13.46;37.26;102599.63;5064381;28;19917;-86
2021/03/02 10:46:03;;;;;;;;;;;;;;;13.46;37.90;102605.09;5053767;28;19913;-86
2021/03/02 10:48:47;;;;;;;;;;;;;;;13.40;37.54;102593.41;5049856;28;19912;-85
2021/03/02 10:51:33;;;;;;;;;;;;;;;13.40;37.17;102593.41;5058824;28;19912;-86
2021/03/02 10:54:17;;;;;;;;;;;;;;;13.37;36.86;102593.97;5053635;28;19916;-85
2021/03/02 10:57:03;;;;;;;;;;;;;;;13.63;35.82;102597.25;5062136;28;19916;-87
2021/03/02 10:59:50;;;;;;;;;;;;;;;13.70;35.91;102593.09;5049725;28;19912;-87
2021/03/02 11:02:35;;;;;;;;;;;;;;;13.81;34.91;102590.25;5050709;28;19916;-87
2021/03/02 11:05:19;;;;;;;;;;;;;;;13.71;35.16;102594.69;5047131;28;19912;-86
2021/03/02 11:08:04;;;;;;;;;;;;;;;13.75;34.24;102586.75;5047824;28;19912;-85
2021/03/02 11:10:50;;;;;;;;;;;;;;;14.03;33.01;102585.03;5061580;28;19912;-84
2021/03/02 11:13:35;;;;;;;;;;;;;;;14.15;31.29;102582.69;5060727;28;20306;-82
2021/03/02 11:16:20;;;;;;;;;;;;;;;14.27;31.52;102579.53;5059163;28;19916;-84
2021/03/02 11:19:05;;;;;;;;;;;;;;;14.26;31.04;102575.16;5046330;28;20383;-84
2021/03/02 11:21:50;;;;;;;;;;;;;;;14.23;32.36;102573.00;5048837;28;20296;-83
2021/03/02 11:24:34;;;;;;;;;;;;;;;14.17;31.74;102575.00;5048514;28;19920;-83
2021/03/02 11:27:20;;;;;;;;;;;;;;;14.17;31.83;102569.53;5064191;28;19913;-83
2021/03/02 11:30:04;;;;;;;;;;;;;;;14.08;33.43;102563.06;5077348;28;20361;-83
2021/03/02 11:32:50;;;;;;;;;;;;;;;14.04;32.92;102565.59;5059803;28;19913;-83
2021/03/02 11:35:34;;;;;;;;;;;;;;;14.27;32.25;102552.19;5065604;28;19916;-85
2021/03/02 11:38:19;;;;;;;;;;;;;;;14.20;33.45;102552.53;5075599;28;19916;-85
2021/03/02 11:41:03;;;;;;;;;;;;;;;14.17;34.38;102550.38;5058170;28;19912;-86
2021/03/02 11:43:48;;;;;;;;;;;;;;;14.13;33.86;102544.69;5051449;28;19916;-85
2021/03/02 11:46:33;;;;;;;;;;;;;;;14.20;32.49;102536.13;5063388;28;19916;-85
2021/03/02 11:49:19;;;;;;;;;;;;;;;14.41;32.28;102537.50;5060814;28;19912;-85
2021/03/02 11:52:05;;;;;;;;;;;;;;;14.62;32.29;102529.78;5060562;28;19916;-85
2021/03/02 11:54:49;;;;;;;;;;;;;;;14.84;31.54;102532.69;5059764;28;19919;-83
2021/03/02 11:57:35;;;;;;;;;;;;;;;15.03;31.26;102520.88;5049714;28;19916;-83
2021/03/02 12:00:20;;;;;;;;;;;;;;;14.86;31.25;102515.97;5065933;28;19913;-83
2021/03/02 12:03:05;;;;;;;;;;;;;;;14.84;31.40;102509.94;5051955;28;19916;-83
2021/03/02 12:05:50;;;;;;;;;;;;;;;14.89;31.63;102509.88;5051118;28;19913;-84
2021/03/02 12:08:35;;;;;;;;;;;;;;;15.25;30.57;102510.88;5064715;28;19913;-87
2021/03/02 12:11:20;;;;;;;;;;;;;;;15.37;30.55;102505.72;5062093;28;19920;-89
2021/03/02 12:14:12;;;;;;;;;;;;;;;15.34;30.49;102502.75;5069130;28;19912;-87
2021/03/02 12:16:57;;;;;;;;;;;;;;;15.31;30.34;102495.94;5059523;28;19916;-88
2021/03/02 12:19:42;;;;;;;;;;;;;;;15.37;30.14;102500.22;5060096;28;19912;-89
2021/03/02 12:22:28;;;;;;;;;;;;;;;15.34;29.99;102489.84;5073088;28;19912;-90
2021/03/02 12:25:14;;;;;;;;;;;;;;;15.25;31.33;102491.69;5051901;28;19916;-85
2021/03/02 12:27:58;;;;;;;;;;;;;;;15.35;31.28;102491.47;5053443;28;19912;-85
2021/03/02 12:30:43;;;;;;;;;;;;;;;15.45;30.75;102492.38;5052152;28;19912;-84
2021/03/02 12:33:28;;;;;;;;;;;;;;;15.77;30.42;102484.09;5052115;28;19912;-87
2021/03/02 12:36:13;;;;;;;;;;;;;;;16.18;29.69;102481.25;5059628;28;19920;-85
2021/03/02 12:38:57;;;;;;;;;;;;;;;16.31;29.07;102477.63;5052050;28;19912;-86
2021/03/02 12:41:44;;;;;;;;;;;;;;;16.23;29.40;102473.72;5084777;28;19920;-86
2021/03/02 12:44:28;;;;;;;;;;;;;;;16.49;28.76;102473.91;5060953;28;19912;-86
2021/03/02 12:47:13;;;;;;;;;;;;;;;16.60;28.97;102477.25;5051900;28;19916;-83
2021/03/02 12:49:58;;;;;;;;;;;;;;;16.64;28.56;102470.81;5068805;28;19912;-86
2021/03/02 12:52:43;;;;;;;;;;;;;;;16.70;28.57;102471.50;5058248;28;20370;-86
2021/03/02 12:55:27;;;;;;;;;;;;;;;16.67;28.39;102461.94;5082647;28;20294;-87
2021/03/02 12:58:12;;;;;;;;;;;;;;;16.77;28.06;102466.38;5068259;28;19916;-78
2021/03/02 13:00:57;;;;;;;;;;;;;;;21.46;22.80;102474.03;5054961;28;19913;-76
2021/03/02 13:03:42;;;;;;;;;;;;;;;28.68;14.16;102472.88;5061506;28;20306;-77
2021/03/02 13:06:27;;;;;;;;;;;;;;;30.90;14.02;102484.00;5059310;28;19921;-77
2021/03/02 13:09:13;;;;;;;;;;;;;;;31.63;15.10;102481.81;5057470;28;19913;-77
2021/03/02 13:11:59;;;;;;;;;;;;;;;31.49;14.38;102479.13;5072678;28;19912;-77
2021/03/02 13:14:44;;;;;;;;;;;;;;;29.90;15.20;102480.09;5044846;28;20385;-76
2021/03/02 13:17:29;;;;;;;;;;;;;;;27.18;14.79;102472.44;5071718;28;19925;-77
2021/03/02 13:20:14;;;;;;;;;;;;;;;25.92;18.44;102476.97;5054059;28;19912;-77
2021/03/02 13:22:59;;;;;;;;;;;;;;;23.56;18.72;102462.97;5073449;28;19912;-77
2021/03/02 13:25:45;;;;;;;;;;;;;;;22.11;19.25;102462.63;5071186;28;19924;-77
2021/03/02 13:28:32;;;;;;;;;;;;;;;22.72;19.97;102456.03;5072564;28;19928;-77
2021/03/02 13:31:17;;;;;;;;;;;;;;;22.00;19.93;102460.69;5059212;28;19913;-77
2021/03/02 13:34:07;;;;;;;;;;;;;;;21.26;20.62;102450.84;5071012;28;19912;-77
2021/03/02 13:36:51;;;;;;;;;;;;;;;21.83;22.15;102458.19;5061429;28;19918;-76
2021/03/02 13:39:38;;;;;;;;;;;;;;;22.10;21.91;102458.25;5058470;28;19912;-77
2021/03/02 13:42:23;;;;;;;;;;;;;;;22.17;21.50;102452.09;5092449;22;20318;-81
2021/03/02 13:45:08;;;;;;;;;;;;;;;22.22;24.82;102453.81;5057430;28;19920;-81
2021/03/02 13:47:57;;;;;;;;;;;;;;;22.02;21.52;102447.31;5048929;28;19912;-79
2021/03/02 13:50:41;;;;;;;;;;;;;;;22.22;20.87;102449.09;5037235;28;19912;-79
2021/03/02 13:53:26;;;;;;;;;;;;;;;22.04;21.46;102448.59;5053107;28;19912;-80
2021/03/02 13:56:12;;;;;;;;;;;;;;;22.00;20.02;102444.88;5048806;28;19912;-82
2021/03/02 13:58:57;;;;;;;;;;;;;;;21.55;20.08;102442.28;5064225;28;19912;-81
2021/03/02 14:01:43;;;;;;;;;;;;;;;20.55;21.20;102442.03;5063481;28;19912;-80
2021/03/02 14:04:33;;;;;;;;;;;;;;;20.19;21.53;102439.91;5037121;28;19912;-80
2021/03/02 14:07:18;;;;;;;;;;;;;;;21.20;22.67;102441.97;5036433;28;19916;-80
2021/03/02 14:10:05;;;;;;;;;;;;;;;21.60;22.97;102436.50;5064151;28;19913;-81
2021/03/02 14:12:51;;;;;;;;;;;;;;;21.51;22.13;102435.03;5047941;28;19912;-79
2021/03/02 14:15:36;;;;;;;;;;;;;;;21.35;21.85;102426.63;5048053;28;20299;-78
2021/03/02 14:18:23;;;;;;;;;;;;;;;21.17;23.65;102428.81;5064910;28;19920;-80
2021/03/02 14:21:09;;;;;;;;;;;;;;;21.27;24.69;102435.84;5049884;28;19912;-80
2021/03/02 14:23:53;;;;;;;;;;;;;;;21.40;24.56;102431.91;5036257;28;19912;-80